Latest Weather Observations for Deua River RF74 (RFS)
Issued at 5:52 am EST Wednesday 2 September 2026 (issued every 10 minutes, with the page automatically refreshed every 10 minutes)
| Station Details | ID: 570997 | Name: DEUA RIVER (RFS) | Lat: -35.79 | Lon: 149.95 | Height: 73.0 m |
Portable automatic weather stations (PAWS) are operated by other organisations, such as Fire and Emergency Services, and are included here by agreement. Portable stations may be deployed to a location for a short period and their location may be subject to change without notice. Wind observations from these stations are provided from heights of either three (3) or ten (10) metres above ground level (AGL).
Data from the previous 72 hours. | See also: Recent months for locations in New South Wales| Date/Time EST |
Temp °C |
App Temp °C |
Dew Point °C |
Rel Hum % |
Delta-T °C |
Wind | Press QNH hPa |
Press MSL hPa |
Rain since 9am mm |
|||||
|---|---|---|---|---|---|---|---|---|---|---|---|---|---|---|
| Dir | Spd km/h |
Gust km/h |
Spd kts |
Gust kts |
||||||||||
| 02/05:40am | 12.8 | 12.3 | 9.4 | 80 | 1.7 | WNW | 2 | 4 | 1 | 2 | 1014.4 | 1005.7 | 0.0 | |
| 02/05:30am | 13.4 | 12.9 | 9.4 | 77 | 2.0 | NW | 2 | 4 | 1 | 2 | 1014.6 | 1005.9 | 0.0 | |
| 02/05:20am | 13.8 | 13.3 | 9.5 | 75 | 2.2 | E | 2 | 2 | 1 | 1 | 1014.9 | 1006.1 | 0.0 | |
| 02/05:10am | 14.3 | 13.9 | 9.6 | 73 | 2.4 | ENE | 2 | 6 | 1 | 3 | 1015.0 | 1006.2 | 0.0 | |
| 02/05:00am | 15.3 | 14.4 | 9.4 | 68 | 3.1 | NE | 4 | 6 | 2 | 3 | 1015.1 | 1006.3 | 0.0 | |
| 02/04:50am | 16.6 | 15.7 | 9.1 | 61 | 3.9 | NNW | 4 | 6 | 2 | 3 | 1015.0 | 1006.2 | 0.0 | |
| 02/04:40am | 16.2 | 15.4 | 9.6 | 65 | 3.4 | NW | 4 | 7 | 2 | 4 | 1015.0 | 1006.2 | 0.0 | |
| 02/04:30am | 17.3 | 16.8 | 9.3 | 59 | 4.2 | NNW | 2 | 6 | 1 | 3 | 1014.9 | 1006.1 | 0.0 | |
| 02/04:20am | 16.5 | 15.6 | 9.3 | 62 | 3.7 | NW | 4 | 7 | 2 | 4 | 1014.6 | 1005.9 | 0.0 | |
| 02/04:10am | 17.7 | 16.9 | 9.5 | 58 | 4.3 | ENE | 4 | 6 | 2 | 3 | 1014.6 | 1005.9 | 0.0 | |
| 02/04:00am | 18.3 | 17.4 | 9.3 | 55 | 4.7 | NNE | 4 | 6 | 2 | 3 | 1014.6 | 1005.9 | 0.0 | |
| 02/03:50am | 18.2 | 16.9 | 9.1 | 55 | 4.8 | NNE | 6 | 11 | 3 | 6 | 1014.9 | 1006.1 | 0.0 | |
| 02/03:40am | 18.8 | 17.9 | 9.3 | 54 | 5.0 | N | 4 | 6 | 2 | 3 | 1015.1 | 1006.3 | 0.0 | |
| 02/03:30am | 19.0 | 18.1 | 9.2 | 53 | 5.2 | NNE | 4 | 6 | 2 | 3 | 1015.4 | 1006.6 | 0.0 | |
| 02/03:20am | 18.4 | 17.1 | 9.3 | 55 | 4.8 | NNW | 6 | 9 | 3 | 5 | 1015.5 | 1006.7 | 0.0 | |
| 02/03:10am | 18.3 | 17.1 | 9.5 | 56 | 4.6 | N | 6 | 9 | 3 | 5 | 1015.3 | 1006.5 | 0.0 | |
| 02/03:00am | 17.6 | 17.1 | 9.5 | 59 | 4.3 | WNW | 2 | 6 | 1 | 3 | 1015.5 | 1006.7 | 0.0 | |
| 02/02:50am | 18.9 | 18.1 | 9.5 | 54 | 5.0 | NW | 4 | 7 | 2 | 4 | 1015.5 | 1006.7 | 0.0 | |
| 02/02:40am | 19.1 | 18.0 | 9.9 | 55 | 4.9 | N | 6 | 13 | 3 | 7 | 1015.5 | 1006.7 | 0.0 | |
| 02/02:30am | 19.5 | 18.7 | 9.6 | 52 | 5.3 | N | 4 | 7 | 2 | 4 | 1015.5 | 1006.7 | 0.0 | |
| 02/02:20am | 19.5 | 18.7 | 9.6 | 52 | 5.3 | NNE | 4 | 7 | 2 | 4 | 1015.4 | 1006.6 | 0.0 | |
| 02/02:10am | 19.0 | 18.3 | 9.9 | 55 | 4.9 | N | 4 | 9 | 2 | 5 | 1015.8 | 1007.0 | 0.0 | |
| 02/02:00am | 19.3 | 18.6 | 9.9 | 54 | 5.0 | NNW | 4 | 9 | 2 | 5 | 1015.8 | 1007.0 | 0.0 | |
| 02/01:50am | 19.3 | 18.0 | 9.9 | 54 | 5.0 | N | 7 | 15 | 4 | 8 | 1015.8 | 1007.0 | 0.0 | |
| 02/01:40am | 19.4 | 18.7 | 10.1 | 55 | 5.0 | NNW | 4 | 9 | 2 | 5 | 1016.0 | 1007.2 | 0.0 | |
| 02/01:30am | 19.4 | 18.3 | 10.1 | 55 | 5.0 | NNE | 6 | 11 | 3 | 6 | 1016.0 | 1007.2 | 0.0 | |
| 02/01:20am | 19.5 | 18.5 | 10.4 | 55 | 4.9 | NNE | 6 | 7 | 3 | 4 | 1015.9 | 1007.1 | 0.0 | |
| 02/01:10am | 19.5 | 18.9 | 10.5 | 56 | 4.9 | N | 4 | 11 | 2 | 6 | 1016.1 | 1007.3 | 0.0 | |
| 02/01:00am | 19.6 | 18.6 | 10.3 | 55 | 5.0 | N | 6 | 9 | 3 | 5 | 1016.0 | 1007.2 | 0.0 | |
| 02/12:50am | 19.6 | 18.6 | 10.4 | 55 | 5.0 | NNW | 6 | 9 | 3 | 5 | 1016.0 | 1007.2 | 0.0 | |
| 02/12:40am | 19.8 | 18.8 | 10.4 | 54 | 5.1 | NW | 6 | 11 | 3 | 6 | 1015.8 | 1007.0 | 0.0 | |
| 02/12:30am | 19.8 | 18.8 | 10.4 | 54 | 5.1 | NNE | 6 | 15 | 3 | 8 | 1015.7 | 1006.9 | 0.0 | |
| 02/12:20am | 19.7 | 18.5 | 10.3 | 54 | 5.1 | NNW | 7 | 11 | 4 | 6 | 1015.9 | 1007.1 | 0.0 | |
| 02/12:10am | 19.8 | 18.6 | 10.2 | 54 | 5.2 | NNE | 7 | 20 | 4 | 11 | 1015.9 | 1007.1 | 0.0 | |
| 02/12:00am | 19.9 | 18.9 | 10.2 | 53 | 5.2 | N | 6 | 20 | 3 | 11 | 1015.8 | 1007.0 | 0.0 | |
| Date/Time EST |
Temp °C |
App Temp °C |
Dew Point °C |
Rel Hum % |
Delta-T °C |
Wind | Press QNH hPa |
Press MSL hPa |
Rain since 9am mm |
|||||
|---|---|---|---|---|---|---|---|---|---|---|---|---|---|---|
| Dir | Spd km/h |
Gust km/h |
Spd kts |
Gust kts |
||||||||||
| 01/11:50pm | 19.8 | 18.8 | 10.2 | 54 | 5.2 | WNW | 6 | 17 | 3 | 9 | 1015.8 | 1007.0 | 0.0 | |
| 01/11:40pm | 19.9 | 18.9 | 10.2 | 53 | 5.2 | NW | 6 | 13 | 3 | 7 | 1015.9 | 1007.1 | 0.0 | |
| 01/11:30pm | 19.8 | 18.2 | 10.3 | 54 | 5.1 | NNW | 9 | 17 | 5 | 9 | 1016.0 | 1007.2 | 0.0 | |
| 01/11:20pm | 20.1 | 17.8 | 10.3 | 53 | 5.3 | NW | 13 | 19 | 7 | 10 | 1016.2 | 1007.4 | 0.0 | |
| 01/11:10pm | 20.0 | 16.9 | 10.4 | 54 | 5.2 | WNW | 17 | 28 | 9 | 15 | 1016.0 | 1007.2 | 0.0 | |
| 01/11:00pm | 20.0 | 18.0 | 10.3 | 53 | 5.3 | NW | 11 | 22 | 6 | 12 | 1016.5 | 1007.7 | 0.0 | |
| 01/10:50pm | 20.1 | 18.1 | 10.3 | 53 | 5.3 | NW | 11 | 17 | 6 | 9 | 1016.9 | 1008.1 | 0.0 | |
| 01/10:40pm | 19.9 | 17.5 | 10.2 | 53 | 5.2 | WNW | 13 | 19 | 7 | 10 | 1016.9 | 1008.1 | 0.0 | |
| 01/10:30pm | 20.1 | 17.7 | 10.2 | 53 | 5.4 | NW | 13 | 20 | 7 | 11 | 1016.9 | 1008.1 | 0.0 | |
| 01/10:20pm | 20.0 | 17.6 | 10.0 | 52 | 5.4 | NW | 13 | 20 | 7 | 11 | 1017.1 | 1008.3 | 0.0 | |
| 01/10:10pm | 20.2 | 17.8 | 10.0 | 52 | 5.5 | NW | 13 | 24 | 7 | 13 | 1017.2 | 1008.4 | 0.0 | |
| 01/10:00pm | 20.3 | 17.5 | 10.0 | 51 | 5.6 | NW | 15 | 20 | 8 | 11 | 1017.2 | 1008.4 | 0.0 | |
| 01/09:50pm | 20.2 | 17.8 | 9.9 | 51 | 5.5 | NW | 13 | 24 | 7 | 13 | 1017.3 | 1008.5 | 0.0 | |
| 01/09:40pm | 20.0 | 18.3 | 9.7 | 51 | 5.5 | WNW | 9 | 15 | 5 | 8 | 1017.4 | 1008.6 | 0.0 | |
| 01/09:30pm | 19.9 | 18.2 | 9.7 | 51 | 5.5 | NW | 9 | 13 | 5 | 7 | 1017.5 | 1008.7 | 0.0 | |
| 01/09:20pm | 20.1 | 18.3 | 9.6 | 50 | 5.6 | WNW | 9 | 17 | 5 | 9 | 1017.6 | 1008.8 | 0.0 | |
| 01/09:10pm | 20.2 | 18.5 | 9.7 | 51 | 5.6 | NW | 9 | 19 | 5 | 10 | 1017.6 | 1008.8 | 0.0 | |
| 01/09:00pm | 20.3 | 18.9 | 9.7 | 50 | 5.7 | WNW | 7 | 11 | 4 | 6 | 1017.7 | 1008.9 | 0.0 | |
| 01/08:50pm | 20.2 | 18.8 | 9.6 | 50 | 5.7 | NW | 7 | 13 | 4 | 7 | 1017.4 | 1008.6 | 0.0 | |
| 01/08:40pm | 20.4 | 18.6 | 9.4 | 49 | 5.9 | NW | 9 | 15 | 5 | 8 | 1017.3 | 1008.5 | 0.0 | |
| 01/08:30pm | 20.5 | 18.7 | 9.4 | 49 | 5.9 | WNW | 9 | 19 | 5 | 10 | 1017.2 | 1008.4 | 0.0 | |
| 01/08:20pm | 20.6 | 18.3 | 9.0 | 47 | 6.2 | NW | 11 | 17 | 6 | 9 | 1017.0 | 1008.2 | 0.0 | |
| 01/08:10pm | 20.8 | 18.1 | 8.9 | 46 | 6.3 | NW | 13 | 17 | 7 | 9 | 1017.0 | 1008.2 | 0.0 | |
| 01/08:00pm | 20.7 | 18.3 | 8.7 | 46 | 6.3 | NW | 11 | 17 | 6 | 9 | 1017.0 | 1008.2 | 0.0 | |
| 01/07:50pm | 20.7 | 18.3 | 8.5 | 45 | 6.4 | NW | 11 | 28 | 6 | 15 | 1017.0 | 1008.2 | 0.0 | |
| 01/07:40pm | 20.6 | 18.1 | 8.4 | 45 | 6.4 | NW | 11 | 19 | 6 | 10 | 1017.0 | 1008.2 | 0.0 | |
| 01/07:30pm | 20.8 | 17.9 | 8.3 | 44 | 6.5 | NW | 13 | 17 | 7 | 9 | 1017.0 | 1008.2 | 0.0 | |
| 01/07:20pm | 20.8 | 18.7 | 8.1 | 44 | 6.6 | NW | 9 | 13 | 5 | 7 | 1016.9 | 1008.1 | 0.0 | |
| 01/07:10pm | 20.7 | 18.6 | 8.3 | 45 | 6.5 | NW | 9 | 15 | 5 | 8 | 1017.0 | 1008.2 | 0.0 | |
| 01/07:00pm | 20.8 | 19.0 | 8.1 | 44 | 6.6 | WNW | 7 | 15 | 4 | 8 | 1017.3 | 1008.5 | 0.0 | |
| 01/06:50pm | 20.9 | 19.1 | 8.0 | 43 | 6.7 | NW | 7 | 9 | 4 | 5 | 1017.4 | 1008.6 | 0.0 | |
| 01/06:40pm | 21.3 | 19.5 | 8.0 | 42 | 7.0 | NW | 7 | 13 | 4 | 7 | 1017.4 | 1008.6 | 0.0 | |
| 01/06:30pm | 21.5 | 19.3 | 7.8 | 41 | 7.1 | NW | 9 | 17 | 5 | 9 | 1017.4 | 1008.6 | 0.0 | |
| 01/06:20pm | 21.7 | 19.4 | 7.4 | 39 | 7.4 | NW | 9 | 20 | 5 | 11 | 1017.4 | 1008.6 | 0.0 | |
| 01/06:10pm | 21.6 | 19.7 | 7.5 | 40 | 7.3 | NNW | 7 | 13 | 4 | 7 | 1017.3 | 1008.5 | 0.0 | |
| 01/06:00pm | 21.6 | 19.7 | 7.4 | 40 | 7.4 | WNW | 7 | 15 | 4 | 8 | 1017.2 | 1008.4 | 0.0 | |
| 01/05:50pm | 22.1 | 19.7 | 7.0 | 37 | 7.8 | NW | 9 | 17 | 5 | 9 | 1017.2 | 1008.4 | 0.0 | |
| 01/05:40pm | 22.2 | 20.1 | 6.8 | 37 | 7.9 | NW | 7 | 13 | 4 | 7 | 1017.1 | 1008.3 | 0.0 | |
| 01/05:30pm | 22.3 | 21.2 | 7.0 | 37 | 7.9 | NNW | 2 | 13 | 1 | 7 | 1017.1 | 1008.3 | 0.0 | |
| 01/05:20pm | 22.6 | 20.8 | 7.0 | 36 | 8.1 | N | 6 | 11 | 3 | 6 | 1017.1 | 1008.3 | 0.0 | |
| 01/05:10pm | 23.0 | 20.9 | 6.5 | 34 | 8.5 | NNW | 7 | 11 | 4 | 6 | 1017.2 | 1008.4 | 0.0 | |
| 01/05:00pm | 23.2 | 21.0 | 6.4 | 33 | 8.6 | N | 7 | 19 | 4 | 10 | 1017.1 | 1008.3 | 0.0 | |
| 01/04:50pm | 23.3 | 21.2 | 6.5 | 34 | 8.6 | NW | 7 | 19 | 4 | 10 | 1017.1 | 1008.3 | 0.0 | |
| 01/04:40pm | 23.7 | 21.3 | 5.4 | 30 | 9.3 | NW | 7 | 19 | 4 | 10 | 1017.0 | 1008.2 | 0.0 | |
| 01/04:30pm | 23.8 | 21.0 | 5.3 | 30 | 9.3 | NW | 9 | 17 | 5 | 9 | 1017.2 | 1008.4 | 0.0 | |
| 01/04:20pm | 24.1 | 21.9 | 5.4 | 30 | 9.5 | NNW | 6 | 17 | 3 | 9 | 1017.2 | 1008.4 | 0.0 | |
| 01/04:10pm | 24.2 | 21.7 | 5.0 | 29 | 9.7 | WNW | 7 | 15 | 4 | 8 | 1017.2 | 1008.4 | 0.0 | |
| 01/04:00pm | 24.5 | 22.0 | 5.0 | 28 | 9.8 | NW | 7 | 13 | 4 | 7 | 1017.3 | 1008.5 | 0.0 | |
| 01/03:50pm | 24.7 | 21.8 | 4.6 | 27 | 10.1 | NNW | 9 | 20 | 5 | 11 | 1017.4 | 1008.6 | 0.0 | |
| 01/03:40pm | 24.7 | 21.8 | 4.6 | 27 | 10.1 | NNW | 9 | 15 | 5 | 8 | 1017.5 | 1008.7 | 0.0 | |
| 01/03:30pm | 25.0 | 21.7 | 4.5 | 26 | 10.3 | NW | 11 | 20 | 6 | 11 | 1017.4 | 1008.6 | 0.0 | |
| 01/03:20pm | 25.1 | 21.4 | 4.5 | 26 | 10.3 | WNW | 13 | 24 | 7 | 13 | 1017.4 | 1008.6 | 0.0 | |
| 01/03:10pm | 25.3 | 22.5 | 5.2 | 27 | 10.2 | WNW | 9 | 17 | 5 | 9 | 1017.5 | 1008.7 | 0.0 | |
| 01/03:00pm | 25.3 | 22.8 | 5.0 | 27 | 10.3 | NW | 7 | 17 | 4 | 9 | 1017.5 | 1008.7 | 0.0 | |
| 01/02:50pm | 25.3 | 23.2 | 5.8 | 28 | 10.0 | N | 6 | 19 | 3 | 10 | 1017.3 | 1008.5 | 0.0 | |
| 01/02:40pm | 25.0 | 22.6 | 5.4 | 28 | 10.0 | NW | 7 | 15 | 4 | 8 | 1017.4 | 1008.6 | 0.0 | |
| 01/02:30pm | 25.2 | 22.6 | 6.0 | 29 | 9.9 | WNW | 9 | 20 | 5 | 11 | 1017.5 | 1008.7 | 0.0 | |
| 01/02:20pm | 25.5 | 23.0 | 6.6 | 30 | 9.9 | NW | 9 | 17 | 5 | 9 | 1017.7 | 1008.9 | 0.0 | |
| 01/02:10pm | 25.3 | 23.1 | 6.2 | 29 | 9.9 | WNW | 7 | 24 | 4 | 13 | 1017.8 | 1009.0 | 0.0 | |
| 01/02:00pm | 25.2 | 23.1 | 6.5 | 30 | 9.7 | NW | 7 | 13 | 4 | 7 | 1018.0 | 1009.2 | 0.0 | |
| 01/01:50pm | 25.1 | 22.3 | 7.0 | 31 | 9.5 | NW | 11 | 33 | 6 | 18 | 1018.2 | 1009.4 | 0.0 | |
| 01/01:40pm | 25.0 | 22.6 | 7.0 | 31 | 9.4 | WNW | 9 | 33 | 5 | 18 | 1018.1 | 1009.3 | 0.0 | |
| 01/01:30pm | 25.0 | 23.2 | 8.1 | 34 | 9.0 | WNW | 7 | 13 | 4 | 7 | 1018.4 | 1009.6 | 0.0 | |
| 01/01:20pm | 24.9 | 22.8 | 8.2 | 34 | 8.9 | NNW | 9 | 15 | 5 | 8 | 1018.6 | 1009.8 | 0.0 | |
| 01/01:10pm | 24.7 | 22.2 | 8.0 | 34 | 8.9 | NW | 11 | 20 | 6 | 11 | 1018.8 | 1010.0 | 0.0 | |
| 01/01:00pm | 24.4 | 21.4 | 7.8 | 34 | 8.8 | NW | 13 | 32 | 7 | 17 | 1018.9 | 1010.1 | 0.0 | |
| 01/12:50pm | 24.5 | 22.8 | 8.3 | 35 | 8.7 | WNW | 7 | 17 | 4 | 9 | 1019.2 | 1010.4 | 0.0 | |
| 01/12:40pm | 24.5 | 22.3 | 8.0 | 35 | 8.8 | NW | 9 | 17 | 5 | 9 | 1019.4 | 1010.6 | 0.0 | |
| 01/12:30pm | 24.2 | 21.6 | 7.8 | 35 | 8.7 | NW | 11 | 15 | 6 | 8 | 1019.8 | 1011.0 | 0.0 | |
| 01/12:20pm | 24.0 | 20.9 | 7.3 | 34 | 8.8 | NW | 13 | 20 | 7 | 11 | 1020.2 | 1011.4 | 0.0 | |
| 01/12:10pm | 23.8 | 20.4 | 7.5 | 35 | 8.6 | WNW | 15 | 26 | 8 | 14 | 1020.2 | 1011.4 | 0.0 | |
| 01/12:00pm | 23.8 | 20.7 | 7.1 | 34 | 8.7 | NW | 13 | 22 | 7 | 12 | 1020.5 | 1011.7 | 0.0 | |
| 01/11:50am | 23.5 | 20.4 | 7.2 | 35 | 8.5 | WNW | 13 | 19 | 7 | 10 | 1020.8 | 1012.0 | 0.0 | |
| 01/11:40am | 23.7 | 20.9 | 7.1 | 34 | 8.7 | WNW | 11 | 22 | 6 | 12 | 1021.0 | 1012.2 | 0.0 | |
| 01/11:30am | 23.7 | 21.1 | 7.6 | 35 | 8.5 | NNW | 11 | 15 | 6 | 8 | 1021.1 | 1012.3 | 0.0 | |
| 01/11:20am | 23.4 | 20.6 | 7.1 | 35 | 8.5 | WNW | 11 | 17 | 6 | 9 | 1021.4 | 1012.6 | 0.0 | |
| 01/11:10am | 23.3 | 20.6 | 7.5 | 36 | 8.3 | NW | 11 | 28 | 6 | 15 | 1021.7 | 1012.9 | 0.0 | |
| 01/11:00am | 23.0 | 20.0 | 7.7 | 37 | 8.0 | NW | 13 | 28 | 7 | 15 | 1021.7 | 1012.9 | 0.0 | |
| 01/10:50am | 23.0 | 20.5 | 8.3 | 39 | 7.8 | WNW | 11 | 22 | 6 | 12 | 1021.8 | 1013.0 | 0.0 | |
| 01/10:40am | 22.6 | 19.8 | 8.5 | 40 | 7.5 | NW | 13 | 22 | 7 | 12 | 1022.0 | 1013.2 | 0.0 | |
| 01/10:30am | 22.4 | 19.1 | 8.0 | 39 | 7.6 | NW | 15 | 26 | 8 | 14 | 1022.4 | 1013.6 | 0.0 | |
| 01/10:20am | 22.2 | 18.8 | 7.8 | 39 | 7.5 | NW | 15 | 26 | 8 | 14 | 1022.5 | 1013.7 | 0.0 | |
| 01/10:10am | 22.2 | 18.8 | 7.7 | 39 | 7.6 | WNW | 15 | 28 | 8 | 15 | 1022.5 | 1013.7 | 0.0 | |
| 01/10:00am | 21.9 | 18.2 | 8.1 | 41 | 7.3 | NW | 17 | 32 | 9 | 17 | 1022.7 | 1013.9 | 0.0 | |
| 01/09:50am | 21.9 | 17.8 | 7.8 | 40 | 7.4 | NW | 19 | 32 | 10 | 17 | 1022.8 | 1014.0 | 0.0 | |
| 01/09:40am | 21.7 | 18.4 | 8.2 | 42 | 7.1 | NW | 15 | 22 | 8 | 12 | 1023.0 | 1014.2 | 0.0 | |
| 01/09:30am | 21.4 | 17.8 | 8.2 | 42 | 6.9 | NW | 17 | 28 | 9 | 15 | 1022.5 | 1013.7 | 0.0 | |
| 01/09:20am | 20.8 | 18.8 | 8.5 | 45 | 6.5 | NNE | 9 | 19 | 5 | 10 | 1023.1 | 1014.3 | 0.0 | |
| 01/09:10am | 19.5 | 18.3 | 9.6 | 52 | 5.3 | ENE | 6 | 11 | 3 | 6 | 1023.4 | 1014.6 | 0.0 | |
| 01/09:00am | 18.4 | 17.3 | 9.9 | 57 | 4.5 | NE | 6 | 11 | 3 | 6 | 1023.7 | 1014.9 | 0.0 | |
| 01/08:50am | 18.4 | 16.7 | 9.9 | 57 | 4.5 | NE | 9 | 20 | 5 | 11 | 1024.0 | 1015.2 | 0.0 | |
| 01/08:40am | 17.6 | 16.8 | 9.7 | 60 | 4.2 | NNW | 4 | 7 | 2 | 4 | 1024.1 | 1015.3 | 0.0 | |
| 01/08:30am | 17.0 | 15.7 | 9.2 | 60 | 4.1 | NNW | 6 | 9 | 3 | 5 | 1024.3 | 1015.5 | 0.0 | |
| 01/08:20am | 15.0 | 14.3 | 10.0 | 72 | 2.6 | NW | 4 | 9 | 2 | 5 | 1024.3 | 1015.5 | 0.0 | |
| 01/08:10am | 11.2 | 10.4 | 11.2 | 100 | 0.0 | NNW | 6 | 9 | 3 | 5 | 1024.5 | 1015.7 | 0.0 | |
| 01/08:00am | 9.3 | 8.4 | 9.3 | 100 | 0.0 | N | 4 | 7 | 2 | 4 | 1024.5 | 1015.7 | 0.0 | |
| 01/07:50am | 7.1 | 6.0 | 7.1 | 100 | 0.0 | N | 2 | 4 | 1 | 2 | 1024.6 | 1015.8 | 0.0 | |
| 01/07:40am | 7.1 | 6.0 | 7.1 | 100 | 0.0 | NNE | 2 | 4 | 1 | 2 | 1024.8 | 1016.0 | 0.0 | |
| 01/07:30am | 6.0 | 4.7 | 6.0 | 100 | 0.0 | NNE | 2 | 4 | 1 | 2 | 1024.9 | 1016.1 | 0.0 | |
| 01/07:20am | 5.9 | 4.6 | 5.9 | 100 | 0.0 | ENE | 2 | 4 | 1 | 2 | 1025.0 | 1016.2 | 0.0 | |
| 01/07:10am | 4.9 | 3.7 | 4.8 | 99 | 0.0 | CALM | 0 | 2 | 0 | 1 | 1025.1 | 1016.3 | 0.0 | |
| 01/07:00am | 5.0 | 3.5 | 4.8 | 99 | 0.1 | N | 2 | 4 | 1 | 2 | 1025.2 | 1016.4 | 0.0 | |
| 01/06:50am | 6.1 | 4.8 | 6.1 | 100 | 0.0 | NE | 2 | 4 | 1 | 2 | 1025.1 | 1016.3 | 0.0 | |
| 01/06:40am | 5.9 | 4.5 | 5.7 | 99 | 0.1 | N | 2 | 2 | 1 | 1 | 1025.2 | 1016.4 | 0.0 | |
| 01/06:30am | 6.0 | 4.7 | 5.9 | 99 | 0.0 | ENE | 2 | 4 | 1 | 2 | 1025.2 | 1016.4 | 0.0 | |
| 01/06:20am | 6.0 | 4.7 | 5.9 | 99 | 0.0 | E | 2 | 4 | 1 | 2 | 1025.2 | 1016.4 | 0.0 | |
| 01/06:10am | 5.7 | 4.3 | 5.6 | 99 | 0.0 | ESE | 2 | 4 | 1 | 2 | 1025.2 | 1016.4 | 0.0 | |
| 01/06:00am | 6.1 | 4.8 | 6.1 | 100 | 0.0 | E | 2 | 4 | 1 | 2 | 1025.2 | 1016.4 | 0.0 | |
| 01/05:50am | 6.0 | 4.7 | 5.9 | 99 | 0.0 | E | 2 | 4 | 1 | 2 | 1025.3 | 1016.5 | 0.0 | |
| 01/05:40am | 5.8 | 4.4 | 5.7 | 99 | 0.0 | E | 2 | 2 | 1 | 1 | 1025.3 | 1016.5 | 0.0 | |
| 01/05:30am | 5.6 | 4.2 | 5.5 | 99 | 0.0 | SSE | 2 | 4 | 1 | 2 | 1025.4 | 1016.6 | 0.0 | |
| 01/05:20am | 5.5 | 4.1 | 5.3 | 99 | 0.1 | E | 2 | 4 | 1 | 2 | 1025.5 | 1016.7 | 0.0 | |
| 01/05:10am | 6.0 | 4.7 | 5.9 | 99 | 0.0 | NE | 2 | 2 | 1 | 1 | 1025.6 | 1016.8 | 0.0 | |
| 01/05:00am | 6.2 | 4.9 | 6.1 | 99 | 0.0 | SSE | 2 | 4 | 1 | 2 | 1025.8 | 1017.0 | 0.0 | |
| 01/04:50am | 5.9 | 4.6 | 5.8 | 99 | 0.0 | SSE | 2 | 4 | 1 | 2 | 1025.8 | 1017.0 | 0.0 | |
| 01/04:40am | 5.7 | 4.3 | 5.6 | 99 | 0.0 | ESE | 2 | 4 | 1 | 2 | 1025.9 | 1017.1 | 0.0 | |
| 01/04:30am | 5.9 | 4.6 | 5.8 | 99 | 0.0 | ENE | 2 | 2 | 1 | 1 | 1026.0 | 1017.2 | 0.0 | |
| 01/04:20am | 5.8 | 4.5 | 5.8 | 100 | 0.0 | E | 2 | 4 | 1 | 2 | 1026.0 | 1017.2 | 0.0 | |
| 01/04:10am | 5.5 | 4.1 | 5.4 | 99 | 0.0 | E | 2 | 2 | 1 | 1 | 1026.1 | 1017.3 | 0.0 | |
| 01/04:00am | 5.5 | 4.5 | 5.4 | 99 | 0.0 | CALM | 0 | 2 | 0 | 1 | 1026.3 | 1017.5 | 0.0 | |
| 01/03:50am | 5.7 | 4.7 | 5.5 | 99 | 0.1 | CALM | 0 | 2 | 0 | 1 | 1026.4 | 1017.6 | 0.0 | |
| 01/03:40am | 5.6 | 4.2 | 5.5 | 99 | 0.0 | N | 2 | 2 | 1 | 1 | 1026.5 | 1017.7 | 0.0 | |
| 01/03:30am | 5.8 | 4.4 | 5.7 | 99 | 0.0 | N | 2 | 2 | 1 | 1 | 1026.7 | 1017.9 | 0.0 | |
| 01/03:20am | 5.6 | 4.2 | 5.4 | 99 | 0.1 | N | 2 | 2 | 1 | 1 | 1026.7 | 1017.9 | 0.0 | |
| 01/03:10am | 5.7 | 4.3 | 5.6 | 99 | 0.0 | NNW | 2 | 2 | 1 | 1 | 1026.7 | 1017.9 | 0.0 | |
| 01/03:00am | 5.3 | 3.8 | 5.2 | 99 | 0.0 | NW | 2 | 4 | 1 | 2 | 1026.8 | 1018.0 | 0.0 | |
| 01/02:50am | 5.3 | 3.8 | 5.1 | 99 | 0.1 | WNW | 2 | 4 | 1 | 2 | 1026.9 | 1018.1 | 0.0 | |
| 01/02:40am | 5.4 | 4.3 | 5.2 | 99 | 0.1 | CALM | 0 | 2 | 0 | 1 | 1027.1 | 1018.3 | 0.0 | |
| 01/02:30am | 5.4 | 4.3 | 5.2 | 99 | 0.1 | CALM | 0 | 2 | 0 | 1 | 1027.3 | 1018.5 | 0.0 | |
| 01/02:20am | 5.6 | 4.2 | 5.3 | 98 | 0.1 | NE | 2 | 2 | 1 | 1 | 1027.5 | 1018.7 | 0.0 | |
| 01/02:10am | 5.6 | 4.6 | 5.4 | 99 | 0.1 | CALM | 0 | 2 | 0 | 1 | 1027.7 | 1018.9 | 0.0 | |
| 01/02:00am | 5.5 | 4.4 | 5.3 | 99 | 0.1 | CALM | 0 | 2 | 0 | 1 | 1027.9 | 1019.1 | 0.0 | |
| 01/01:50am | 5.6 | 4.6 | 5.4 | 99 | 0.1 | CALM | 0 | 2 | 0 | 1 | 1028.1 | 1019.3 | 0.0 | |
| 01/01:40am | 5.6 | 4.6 | 5.4 | 99 | 0.1 | CALM | 0 | 2 | 0 | 1 | 1028.2 | 1019.4 | 0.0 | |
| 01/01:30am | 5.7 | 4.3 | 5.5 | 99 | 0.1 | NNW | 2 | 2 | 1 | 1 | 1028.4 | 1019.6 | 0.0 | |
| 01/01:20am | 5.7 | 4.3 | 5.5 | 99 | 0.1 | SW | 2 | 2 | 1 | 1 | 1028.6 | 1019.8 | 0.0 | |
| 01/01:10am | 6.0 | 4.7 | 5.8 | 99 | 0.1 | NNE | 2 | 2 | 1 | 1 | 1028.7 | 1019.9 | 0.0 | |
| 01/01:00am | 6.1 | 4.8 | 5.8 | 98 | 0.1 | NE | 2 | 2 | 1 | 1 | 1028.7 | 1019.9 | 0.0 | |
| 01/12:50am | 6.0 | 4.6 | 5.7 | 98 | 0.1 | NNW | 2 | 2 | 1 | 1 | 1028.9 | 1020.1 | 0.0 | |
| 01/12:40am | 6.0 | 5.0 | 5.7 | 98 | 0.1 | CALM | 0 | 2 | 0 | 1 | 1029.0 | 1020.2 | 0.0 | |
| 01/12:30am | 6.1 | 5.1 | 5.8 | 98 | 0.1 | CALM | 0 | 2 | 0 | 1 | 1029.0 | 1020.2 | 0.0 | |
| 01/12:20am | 6.3 | 5.4 | 6.0 | 98 | 0.1 | CALM | 0 | 2 | 0 | 1 | 1029.0 | 1020.2 | 0.0 | |
| 01/12:10am | 6.6 | 5.8 | 6.3 | 98 | 0.1 | CALM | 0 | 2 | 0 | 1 | 1029.0 | 1020.2 | 0.0 | |
| 01/12:00am | 6.7 | 5.9 | 6.4 | 98 | 0.1 | CALM | 0 | 2 | 0 | 1 | 1029.1 | 1020.3 | 0.0 | |
| Date/Time EST |
Temp °C |
App Temp °C |
Dew Point °C |
Rel Hum % |
Delta-T °C |
Wind | Press QNH hPa |
Press MSL hPa |
Rain since 9am mm |
|||||
|---|---|---|---|---|---|---|---|---|---|---|---|---|---|---|
| Dir | Spd km/h |
Gust km/h |
Spd kts |
Gust kts |
||||||||||
| 31/11:50pm | 6.8 | 6.0 | 6.5 | 98 | 0.1 | CALM | 0 | 2 | 0 | 1 | 1029.3 | 1020.4 | 0.0 | |
| 31/11:40pm | 6.8 | 6.0 | 6.5 | 98 | 0.1 | CALM | 0 | 2 | 0 | 1 | 1029.4 | 1020.5 | 0.0 | |
| 31/11:30pm | 7.0 | 6.2 | 6.7 | 98 | 0.1 | CALM | 0 | 2 | 0 | 1 | 1029.5 | 1020.6 | 0.0 | |
| 31/11:20pm | 7.1 | 6.0 | 6.7 | 97 | 0.2 | NW | 2 | 2 | 1 | 1 | 1029.7 | 1020.8 | 0.0 | |
| 31/11:10pm | 7.1 | 6.4 | 6.8 | 98 | 0.1 | CALM | 0 | 2 | 0 | 1 | 1029.9 | 1021.0 | 0.0 | |
| 31/11:00pm | 7.3 | 6.6 | 7.0 | 98 | 0.1 | CALM | 0 | 2 | 0 | 1 | 1030.0 | 1021.1 | 0.0 | |
| 31/10:50pm | 7.6 | 7.0 | 7.2 | 97 | 0.2 | CALM | 0 | 2 | 0 | 1 | 1030.1 | 1021.2 | 0.0 | |
| 31/10:40pm | 7.7 | 7.1 | 7.3 | 97 | 0.2 | CALM | 0 | 2 | 0 | 1 | 1030.2 | 1021.3 | 0.0 | |
| 31/10:30pm | 7.9 | 6.9 | 7.5 | 97 | 0.2 | NNE | 2 | 4 | 1 | 2 | 1030.3 | 1021.4 | 0.0 | |
| 31/10:20pm | 8.1 | 7.6 | 7.7 | 97 | 0.2 | CALM | 0 | 0 | 0 | 0 | 1030.4 | 1021.5 | 0.0 | |
| 31/10:10pm | 8.2 | 7.7 | 7.7 | 97 | 0.2 | CALM | 0 | 2 | 0 | 1 | 1030.4 | 1021.5 | 0.0 | |
| 31/10:00pm | 8.2 | 7.7 | 7.7 | 97 | 0.2 | CALM | 0 | 2 | 0 | 1 | 1030.5 | 1021.6 | 0.0 | |
| 31/09:50pm | 8.4 | 7.9 | 7.9 | 97 | 0.2 | CALM | 0 | 2 | 0 | 1 | 1030.6 | 1021.7 | 0.0 | |
| 31/09:40pm | 8.6 | 8.2 | 8.1 | 97 | 0.2 | CALM | 0 | 2 | 0 | 1 | 1030.6 | 1021.7 | 0.0 | |
| 31/09:30pm | 8.9 | 8.5 | 8.4 | 97 | 0.2 | CALM | 0 | 2 | 0 | 1 | 1030.6 | 1021.7 | 0.0 | |
| 31/09:20pm | 9.0 | 8.7 | 8.5 | 97 | 0.2 | CALM | 0 | 2 | 0 | 1 | 1030.6 | 1021.7 | 0.0 | |
| 31/09:10pm | 9.1 | 8.8 | 8.5 | 96 | 0.3 | CALM | 0 | 2 | 0 | 1 | 1030.7 | 1021.8 | 0.0 | |
| 31/09:00pm | 9.4 | 8.8 | 8.9 | 97 | 0.2 | SSW | 2 | 2 | 1 | 1 | 1030.6 | 1021.7 | 0.0 | |
| 31/08:50pm | 9.6 | 9.4 | 9.0 | 96 | 0.3 | CALM | 0 | 2 | 0 | 1 | 1030.6 | 1021.7 | 0.0 | |
| 31/08:40pm | 9.7 | 9.5 | 9.0 | 95 | 0.3 | CALM | 0 | 2 | 0 | 1 | 1030.5 | 1021.6 | 0.0 | |
| 31/08:30pm | 10.0 | 9.5 | 9.3 | 95 | 0.3 | SSE | 2 | 2 | 1 | 1 | 1030.6 | 1021.7 | 0.0 | |
| 31/08:20pm | 10.1 | 10.0 | 9.4 | 95 | 0.3 | CALM | 0 | 2 | 0 | 1 | 1030.5 | 1021.6 | 0.0 | |
| 31/08:10pm | 10.3 | 9.8 | 9.5 | 95 | 0.4 | SE | 2 | 2 | 1 | 1 | 1030.5 | 1021.6 | 0.0 | |
| 31/08:00pm | 10.6 | 10.2 | 9.9 | 95 | 0.4 | N | 2 | 2 | 1 | 1 | 1030.4 | 1021.5 | 0.0 | |
| 31/07:50pm | 10.8 | 10.5 | 10.0 | 95 | 0.4 | ESE | 2 | 2 | 1 | 1 | 1030.4 | 1021.5 | 0.0 | |
| 31/07:40pm | 11.1 | 11.2 | 10.2 | 94 | 0.5 | CALM | 0 | 2 | 0 | 1 | 1030.4 | 1021.5 | 0.0 | |
| 31/07:30pm | 11.2 | 10.9 | 10.1 | 93 | 0.6 | SE | 2 | 2 | 1 | 1 | 1030.3 | 1021.4 | 0.0 | |
| 31/07:20pm | 11.6 | 11.4 | 10.4 | 92 | 0.6 | ESE | 2 | 2 | 1 | 1 | 1030.3 | 1021.4 | 0.0 | |
| 31/07:10pm | 11.9 | 12.1 | 10.6 | 92 | 0.7 | CALM | 0 | 2 | 0 | 1 | 1030.2 | 1021.3 | 0.0 | |
| 31/07:00pm | 12.2 | 12.1 | 10.8 | 91 | 0.7 | SE | 2 | 2 | 1 | 1 | 1030.1 | 1021.2 | 0.0 | |
| 31/06:50pm | 12.6 | 12.6 | 11.0 | 90 | 0.8 | SSE | 2 | 2 | 1 | 1 | 1030.1 | 1021.2 | 0.0 | |
| 31/06:40pm | 12.8 | 12.8 | 11.1 | 89 | 0.9 | SE | 2 | 2 | 1 | 1 | 1029.9 | 1021.0 | 0.0 | |
| 31/06:30pm | 13.3 | 13.3 | 11.3 | 88 | 1.1 | ESE | 2 | 2 | 1 | 1 | 1029.9 | 1021.0 | 0.0 | |
| 31/06:20pm | 13.6 | 13.6 | 11.3 | 86 | 1.2 | SE | 2 | 2 | 1 | 1 | 1029.8 | 1020.9 | 0.0 | |
| 31/06:10pm | 14.1 | 14.2 | 11.4 | 84 | 1.4 | ESE | 2 | 4 | 1 | 2 | 1029.7 | 1020.8 | 0.0 | |
| 31/06:00pm | 14.7 | 14.8 | 11.6 | 82 | 1.7 | ESE | 2 | 4 | 1 | 2 | 1029.6 | 1020.7 | 0.0 | |
| 31/05:50pm | 15.0 | 15.1 | 11.6 | 80 | 1.8 | SSE | 2 | 4 | 1 | 2 | 1029.5 | 1020.6 | 0.0 | |
| 31/05:40pm | 15.8 | 15.9 | 11.6 | 76 | 2.3 | SE | 2 | 6 | 1 | 3 | 1029.5 | 1020.6 | 0.0 | |
| 31/05:30pm | 16.7 | 16.9 | 11.7 | 72 | 2.7 | S | 2 | 2 | 1 | 1 | 1029.4 | 1020.5 | 0.0 | |
| 31/05:20pm | 17.0 | 17.2 | 11.9 | 72 | 2.8 | S | 2 | 4 | 1 | 2 | 1029.4 | 1020.5 | 0.0 | |
| 31/05:10pm | 17.9 | 17.8 | 12.0 | 68 | 3.3 | S | 4 | 6 | 2 | 3 | 1029.3 | 1020.4 | 0.0 | |
| 31/05:00pm | 18.4 | 17.8 | 11.8 | 65 | 3.6 | SE | 6 | 7 | 3 | 4 | 1029.1 | 1020.3 | 0.0 | |
| 31/04:50pm | 19.0 | 18.7 | 11.4 | 61 | 4.2 | ESE | 4 | 7 | 2 | 4 | 1028.9 | 1020.1 | 0.0 | |
| 31/04:40pm | 19.3 | 19.0 | 11.5 | 60 | 4.3 | SSE | 4 | 7 | 2 | 4 | 1028.9 | 1020.1 | 0.0 | |
| 31/04:30pm | 19.7 | 19.0 | 11.3 | 58 | 4.6 | SE | 6 | 9 | 3 | 5 | 1028.9 | 1020.1 | 0.0 | |
| 31/04:20pm | 19.9 | 19.0 | 10.8 | 55 | 5.0 | SE | 6 | 11 | 3 | 6 | 1028.8 | 1020.0 | 0.0 | |
| 31/04:10pm | 20.0 | 19.2 | 11.1 | 56 | 4.9 | SSE | 6 | 11 | 3 | 6 | 1028.8 | 1020.0 | 0.0 | |
| 31/04:00pm | 20.5 | 19.7 | 11.2 | 55 | 5.1 | SE | 6 | 7 | 3 | 4 | 1028.8 | 1020.0 | 0.0 | |
| 31/03:50pm | 20.8 | 20.3 | 11.9 | 56 | 5.0 | SE | 6 | 7 | 3 | 4 | 1028.8 | 1020.0 | 0.0 | |
| 31/03:40pm | 21.0 | 20.5 | 12.2 | 57 | 5.0 | S | 6 | 9 | 3 | 5 | 1028.8 | 1020.0 | 0.0 | |
| 31/03:30pm | 21.5 | 21.0 | 12.2 | 55 | 5.3 | S | 6 | 9 | 3 | 5 | 1028.8 | 1020.0 | 0.0 | |
| 31/03:20pm | 21.6 | 21.1 | 12.2 | 55 | 5.3 | SSE | 6 | 13 | 3 | 7 | 1028.8 | 1020.0 | 0.0 | |
| 31/03:10pm | 22.1 | 21.7 | 12.4 | 54 | 5.5 | ESE | 6 | 15 | 3 | 8 | 1028.8 | 1020.0 | 0.0 | |
| 31/03:00pm | 22.4 | 22.4 | 12.5 | 53 | 5.6 | ESE | 4 | 15 | 2 | 8 | 1028.7 | 1019.9 | 0.0 | |
| 31/02:50pm | 22.9 | 22.9 | 12.4 | 51 | 6.0 | NNE | 4 | 9 | 2 | 5 | 1028.7 | 1019.9 | 0.0 | |
| 31/02:40pm | 22.9 | 22.8 | 12.1 | 50 | 6.1 | SE | 4 | 9 | 2 | 5 | 1028.7 | 1019.9 | 0.0 | |
| 31/02:30pm | 23.3 | 23.1 | 11.8 | 48 | 6.5 | ENE | 4 | 6 | 2 | 3 | 1028.8 | 1020.0 | 0.0 | |
| 31/02:20pm | 23.5 | 22.5 | 10.4 | 43 | 7.2 | E | 6 | 11 | 3 | 6 | 1028.8 | 1020.0 | 0.0 | |
| 31/02:10pm | 23.5 | 21.9 | 8.2 | 37 | 8.1 | ESE | 6 | 13 | 3 | 7 | 1028.8 | 1020.0 | 0.0 | |
| 31/02:00pm | 23.7 | 21.8 | 6.5 | 33 | 8.9 | ESE | 6 | 11 | 3 | 6 | 1028.9 | 1020.1 | 0.0 | |
| 31/01:50pm | 23.7 | 21.7 | 6.4 | 32 | 8.9 | ESE | 6 | 11 | 3 | 6 | 1028.9 | 1020.1 | 0.0 | |
| 31/01:40pm | 24.0 | 22.5 | 6.7 | 33 | 9.0 | SSE | 4 | 7 | 2 | 4 | 1029.0 | 1020.2 | 0.0 | |
| 31/01:30pm | 24.0 | 22.2 | 7.2 | 34 | 8.8 | SE | 6 | 9 | 3 | 5 | 1029.0 | 1020.2 | 0.0 | |
| 31/01:20pm | 23.5 | 21.7 | 7.2 | 35 | 8.5 | ESE | 6 | 11 | 3 | 6 | 1029.3 | 1020.4 | 0.0 | |
| 31/01:10pm | 23.5 | 22.1 | 7.4 | 35 | 8.4 | E | 4 | 9 | 2 | 5 | 1029.5 | 1020.6 | 0.0 | |
| 31/01:00pm | 23.0 | 21.8 | 8.0 | 38 | 7.9 | SSE | 4 | 9 | 2 | 5 | 1029.7 | 1020.8 | 0.0 | |
| 31/12:50pm | 22.9 | 21.4 | 8.3 | 39 | 7.7 | SSE | 6 | 9 | 3 | 5 | 1029.9 | 1021.0 | 0.0 | |
| 31/12:40pm | 22.6 | 20.9 | 6.0 | 34 | 8.4 | ESE | 4 | 7 | 2 | 4 | 1030.0 | 1021.1 | 0.0 | |
| 31/12:30pm | 22.6 | 21.4 | 7.9 | 39 | 7.7 | SE | 4 | 9 | 2 | 5 | 1030.2 | 1021.3 | 0.0 | |
| 31/12:20pm | 22.4 | 21.1 | 7.8 | 39 | 7.7 | ESE | 4 | 9 | 2 | 5 | 1030.3 | 1021.4 | 0.0 | |
| 31/12:10pm | 22.1 | 20.8 | 9.1 | 43 | 7.0 | ESE | 6 | 7 | 3 | 4 | 1030.5 | 1021.6 | 0.0 | |
| 31/12:00pm | 21.6 | 20.5 | 8.4 | 42 | 7.0 | E | 4 | 6 | 2 | 3 | 1030.7 | 1021.8 | 0.0 | |
| 31/11:50am | 21.3 | 20.2 | 8.6 | 44 | 6.7 | SSW | 4 | 7 | 2 | 4 | 1031.0 | 1022.1 | 0.0 | |
| 31/11:40am | 21.1 | 20.1 | 9.0 | 46 | 6.4 | SSE | 4 | 6 | 2 | 3 | 1031.2 | 1022.3 | 0.0 | |
| 31/11:30am | 20.6 | 20.0 | 8.9 | 47 | 6.2 | WSW | 2 | 4 | 1 | 2 | 1031.3 | 1022.4 | 0.0 | |
| 31/11:20am | 20.5 | 19.8 | 8.5 | 46 | 6.3 | S | 2 | 4 | 1 | 2 | 1031.5 | 1022.6 | 0.0 | |
| 31/11:10am | 20.0 | 19.4 | 9.0 | 49 | 5.8 | E | 2 | 4 | 1 | 2 | 1031.7 | 1022.8 | 0.0 | |
| 31/11:00am | 19.7 | 18.8 | 7.9 | 46 | 6.1 | SSE | 2 | 2 | 1 | 1 | 1031.9 | 1023.0 | 0.0 | |
| 31/10:50am | 18.7 | 17.8 | 7.8 | 49 | 5.6 | SSW | 2 | 4 | 1 | 2 | 1032.2 | 1023.3 | 0.0 | |
| 31/10:40am | 17.8 | 16.9 | 7.7 | 51 | 5.1 | WSW | 2 | 6 | 1 | 3 | 1032.4 | 1023.5 | 0.0 | |
| 31/10:30am | 17.2 | 16.0 | 8.1 | 55 | 4.6 | WNW | 4 | 6 | 2 | 3 | 1032.6 | 1023.7 | 0.0 | |
| 31/10:20am | 16.6 | 15.3 | 7.8 | 56 | 4.4 | WNW | 4 | 6 | 2 | 3 | 1032.8 | 1023.9 | 0.0 | |
| 31/10:10am | 15.9 | 14.9 | 8.7 | 62 | 3.7 | NW | 4 | 6 | 2 | 3 | 1032.9 | 1024.0 | 0.0 | |
| 31/10:00am | 15.2 | 14.7 | 9.2 | 67 | 3.1 | WNW | 2 | 6 | 1 | 3 | 1033.0 | 1024.1 | 0.0 | |
| 31/09:50am | 14.6 | 14.4 | 10.6 | 77 | 2.1 | NW | 2 | 4 | 1 | 2 | 1033.1 | 1024.2 | 0.0 | |
| 31/09:40am | 13.6 | 13.0 | 10.5 | 81 | 1.6 | W | 4 | 6 | 2 | 3 | 1033.1 | 1024.2 | 0.0 | |
| 31/09:30am | 12.6 | 11.8 | 9.8 | 83 | 1.4 | W | 4 | 6 | 2 | 3 | 1033.2 | 1024.3 | 0.0 | |
| 31/09:20am | 10.7 | 10.5 | 10.3 | 97 | 0.2 | W | 2 | 4 | 1 | 2 | 1033.3 | 1024.4 | 0.0 | |
| 31/09:10am | 10.2 | 9.9 | 10.1 | 99 | 0.1 | WNW | 2 | 4 | 1 | 2 | 1033.3 | 1024.4 | 0.0 | |
| 31/09:00am | 9.9 | 9.2 | 9.9 | 100 | 0.0 | WNW | 4 | 6 | 2 | 3 | 1033.3 | 1024.4 | 0.0 | |
| 31/08:50am | 9.4 | 8.9 | 9.4 | 100 | 0.0 | NW | 2 | 6 | 1 | 3 | 1033.3 | 1024.4 | 0.0 | |
| 31/08:40am | 8.9 | 8.3 | 8.9 | 100 | 0.0 | WNW | 2 | 4 | 1 | 2 | 1033.2 | 1024.3 | 0.0 | |
| 31/08:30am | 8.2 | 7.4 | 8.2 | 100 | 0.0 | S | 2 | 2 | 1 | 1 | 1033.2 | 1024.3 | 0.0 | |
| 31/08:20am | 7.5 | 6.5 | 7.5 | 100 | 0.0 | NW | 2 | 6 | 1 | 3 | 1033.2 | 1024.3 | 0.0 | |
| 31/08:10am | 7.1 | 6.0 | 7.1 | 100 | 0.0 | NW | 2 | 6 | 1 | 3 | 1033.3 | 1024.4 | 0.0 | |
| 31/08:00am | 6.6 | 5.4 | 6.6 | 100 | 0.0 | NE | 2 | 6 | 1 | 3 | 1033.2 | 1024.3 | 0.0 | |
| 31/07:50am | 5.9 | 4.6 | 5.9 | 100 | 0.0 | NNE | 2 | 2 | 1 | 1 | 1033.1 | 1024.2 | 0.0 | |
| 31/07:40am | 5.5 | 4.1 | 5.5 | 100 | 0.0 | NNW | 2 | 2 | 1 | 1 | 1033.0 | 1024.1 | 0.0 | |
| 31/07:30am | 5.2 | 3.7 | 5.2 | 100 | 0.0 | N | 2 | 2 | 1 | 1 | 1033.0 | 1024.1 | 0.0 | |
| 31/07:20am | 4.8 | 3.3 | 4.8 | 100 | 0.0 | E | 2 | 2 | 1 | 1 | 1033.0 | 1024.1 | 0.0 | |
| 31/07:10am | 4.7 | 3.1 | 4.6 | 99 | 0.0 | N | 2 | 2 | 1 | 1 | 1032.8 | 1023.9 | 0.0 | |
| 31/07:00am | 4.6 | 3.0 | 4.5 | 99 | 0.0 | N | 2 | 4 | 1 | 2 | 1032.7 | 1023.8 | 0.0 | |
| 31/06:50am | 4.5 | 2.9 | 4.4 | 99 | 0.0 | N | 2 | 4 | 1 | 2 | 1032.7 | 1023.8 | 0.0 | |
| 31/06:40am | 4.3 | 2.6 | 4.2 | 99 | 0.0 | E | 2 | 2 | 1 | 1 | 1032.6 | 1023.7 | 0.0 | |
| 31/06:30am | 4.5 | 2.9 | 4.4 | 99 | 0.0 | ESE | 2 | 2 | 1 | 1 | 1032.4 | 1023.5 | 0.0 | |
| 31/06:20am | 4.7 | 3.1 | 4.7 | 100 | 0.0 | E | 2 | 2 | 1 | 1 | 1032.3 | 1023.4 | 0.0 | |
| 31/06:10am | 4.3 | 2.6 | 4.2 | 99 | 0.0 | ENE | 2 | 2 | 1 | 1 | 1032.3 | 1023.4 | 0.0 | |
| 31/06:00am | 4.6 | 3.0 | 4.5 | 99 | 0.0 | ESE | 2 | 4 | 1 | 2 | 1032.2 | 1023.3 | 0.0 | |
| 31/05:50am | 4.2 | 2.5 | 4.1 | 99 | 0.0 | E | 2 | 4 | 1 | 2 | 1032.2 | 1023.3 | 0.0 | |
| 31/05:40am | 4.3 | 2.6 | 4.2 | 99 | 0.0 | ESE | 2 | 2 | 1 | 1 | 1032.1 | 1023.2 | 0.0 | |
| 31/05:30am | 4.5 | 2.9 | 4.4 | 99 | 0.0 | S | 2 | 4 | 1 | 2 | 1032.0 | 1023.1 | 0.0 | |
| 31/05:20am | 5.0 | 3.5 | 4.9 | 99 | 0.0 | E | 2 | 4 | 1 | 2 | 1031.9 | 1023.0 | 0.0 | |
| 31/05:10am | 4.8 | 3.6 | 4.7 | 99 | 0.0 | CALM | 0 | 2 | 0 | 1 | 1031.9 | 1023.0 | 0.0 | |
| 31/05:00am | 5.0 | 3.9 | 4.9 | 99 | 0.0 | CALM | 0 | 2 | 0 | 1 | 1031.8 | 1022.9 | 0.0 | |
| 31/04:50am | 5.0 | 3.5 | 4.9 | 99 | 0.0 | N | 2 | 2 | 1 | 1 | 1031.7 | 1022.8 | 0.0 | |
| 31/04:40am | 5.1 | 3.6 | 5.0 | 99 | 0.0 | N | 2 | 2 | 1 | 1 | 1031.6 | 1022.7 | 0.0 | |
| 31/04:30am | 4.8 | 3.2 | 4.7 | 99 | 0.0 | WNW | 2 | 2 | 1 | 1 | 1031.5 | 1022.6 | 0.0 | |
| 31/04:20am | 5.0 | 3.5 | 4.9 | 99 | 0.0 | NNW | 2 | 4 | 1 | 2 | 1031.5 | 1022.6 | 0.0 | |
| 31/04:10am | 4.8 | 3.6 | 4.6 | 99 | 0.1 | CALM | 0 | 2 | 0 | 1 | 1031.5 | 1022.6 | 0.0 | |
| 31/04:00am | 5.1 | 4.0 | 4.9 | 99 | 0.1 | CALM | 0 | 2 | 0 | 1 | 1031.4 | 1022.5 | 0.0 | |
| 31/03:50am | 5.4 | 3.9 | 5.2 | 99 | 0.1 | NE | 2 | 2 | 1 | 1 | 1031.4 | 1022.5 | 0.0 | |
| 31/03:40am | 5.2 | 3.7 | 5.0 | 99 | 0.1 | SSW | 2 | 4 | 1 | 2 | 1031.3 | 1022.4 | 0.0 | |
| 31/03:30am | 5.5 | 4.1 | 5.3 | 99 | 0.1 | ESE | 2 | 4 | 1 | 2 | 1031.2 | 1022.3 | 0.0 | |
| 31/03:20am | 5.9 | 4.5 | 5.7 | 99 | 0.1 | E | 2 | 4 | 1 | 2 | 1031.1 | 1022.2 | 0.0 | |
| 31/03:10am | 7.2 | 6.1 | 7.1 | 99 | 0.0 | E | 2 | 4 | 1 | 2 | 1031.0 | 1022.1 | 0.0 | |
| 31/03:00am | 6.5 | 5.3 | 6.3 | 99 | 0.1 | N | 2 | 2 | 1 | 1 | 1031.0 | 1022.1 | 0.0 | |
| 31/02:50am | 6.6 | 5.4 | 6.4 | 99 | 0.1 | N | 2 | 2 | 1 | 1 | 1031.1 | 1022.2 | 0.0 | |
| 31/02:40am | 6.8 | 5.6 | 6.6 | 99 | 0.1 | N | 2 | 2 | 1 | 1 | 1031.1 | 1022.2 | 0.0 | |
| 31/02:30am | 6.5 | 5.3 | 6.3 | 99 | 0.1 | SSE | 2 | 2 | 1 | 1 | 1031.2 | 1022.3 | 0.0 | |
| 31/02:20am | 6.6 | 5.4 | 6.4 | 99 | 0.1 | ESE | 2 | 2 | 1 | 1 | 1031.2 | 1022.3 | 0.0 | |
| 31/02:10am | 6.7 | 5.9 | 6.5 | 99 | 0.1 | CALM | 0 | 2 | 0 | 1 | 1031.3 | 1022.4 | 0.0 | |
| 31/02:00am | 6.6 | 5.4 | 6.4 | 99 | 0.1 | E | 2 | 4 | 1 | 2 | 1031.3 | 1022.4 | 0.0 | |
| 31/01:50am | 6.8 | 5.6 | 6.6 | 99 | 0.1 | E | 2 | 4 | 1 | 2 | 1031.4 | 1022.5 | 0.0 | |
| 31/01:40am | 7.1 | 6.0 | 6.9 | 99 | 0.1 | NE | 2 | 2 | 1 | 1 | 1031.6 | 1022.7 | 0.0 | |
| 31/01:30am | 7.0 | 5.9 | 6.8 | 99 | 0.1 | E | 2 | 4 | 1 | 2 | 1031.7 | 1022.8 | 0.0 | |
| 31/01:20am | 7.0 | 5.9 | 6.7 | 98 | 0.1 | ENE | 2 | 2 | 1 | 1 | 1031.7 | 1022.8 | 0.0 | |
| 31/01:10am | 7.0 | 5.9 | 6.8 | 99 | 0.1 | E | 2 | 2 | 1 | 1 | 1031.7 | 1022.8 | 0.0 | |
| 31/01:00am | 7.1 | 6.0 | 6.9 | 99 | 0.1 | NE | 2 | 4 | 1 | 2 | 1031.8 | 1022.9 | 0.0 | |
| 31/12:50am | 6.9 | 5.7 | 6.6 | 98 | 0.1 | SSE | 2 | 2 | 1 | 1 | 1031.9 | 1023.0 | 0.0 | |
| 31/12:40am | 6.9 | 5.7 | 6.6 | 98 | 0.1 | NNE | 2 | 2 | 1 | 1 | 1031.9 | 1023.0 | 0.0 | |
| 31/12:30am | 7.0 | 5.9 | 6.7 | 98 | 0.1 | NW | 2 | 2 | 1 | 1 | 1032.0 | 1023.1 | 0.0 | |
| 31/12:20am | 7.2 | 6.1 | 6.9 | 98 | 0.1 | NNE | 2 | 2 | 1 | 1 | 1032.1 | 1023.2 | 0.0 | |
| 31/12:10am | 7.1 | 6.4 | 6.8 | 98 | 0.1 | CALM | 0 | 2 | 0 | 1 | 1032.2 | 1023.3 | 0.0 | |
| 31/12:00am | 7.5 | 6.9 | 7.2 | 98 | 0.1 | CALM | 0 | 2 | 0 | 1 | 1032.3 | 1023.4 | 0.0 | |
| Date/Time EST |
Temp °C |
App Temp °C |
Dew Point °C |
Rel Hum % |
Delta-T °C |
Wind | Press QNH hPa |
Press MSL hPa |
Rain since 9am mm |
||||
|---|---|---|---|---|---|---|---|---|---|---|---|---|---|
| Dir | Spd km/h |
Gust km/h |
Spd kts |
Gust kts |
|||||||||
| 30/11:50pm | 7.5 | 6.9 | 7.2 | 98 | 0.1 | CALM | 0 | 2 | 0 | 1 | 1032.3 | 1023.4 | 0.0 |
| 30/11:40pm | 7.7 | 6.7 | 7.4 | 98 | 0.1 | NNW | 2 | 2 | 1 | 1 | 1032.4 | 1023.5 | 0.0 |
| 30/11:30pm | 7.8 | 6.8 | 7.4 | 97 | 0.2 | E | 2 | 2 | 1 | 1 | 1032.5 | 1023.6 | 0.0 |
| 30/11:20pm | 7.9 | 7.0 | 7.6 | 98 | 0.1 | NE | 2 | 2 | 1 | 1 | 1032.6 | 1023.7 | 0.0 |
| 30/11:10pm | 7.6 | 6.6 | 7.3 | 98 | 0.1 | NW | 2 | 2 | 1 | 1 | 1032.7 | 1023.8 | 0.0 |
| 30/11:00pm | 7.9 | 7.0 | 7.6 | 98 | 0.1 | N | 2 | 2 | 1 | 1 | 1032.8 | 1023.9 | 0.0 |
| 30/10:50pm | 8.1 | 7.2 | 7.7 | 97 | 0.2 | ESE | 2 | 4 | 1 | 2 | 1032.8 | 1023.9 | 0.0 |
| 30/10:40pm | 8.3 | 7.5 | 8.0 | 98 | 0.1 | E | 2 | 2 | 1 | 1 | 1032.8 | 1023.9 | 0.0 |
| 30/10:30pm | 8.4 | 7.6 | 8.0 | 97 | 0.2 | W | 2 | 4 | 1 | 2 | 1032.8 | 1023.9 | 0.0 |
| 30/10:20pm | 8.9 | 8.2 | 8.6 | 98 | 0.1 | NNE | 2 | 4 | 1 | 2 | 1033.0 | 1024.1 | 0.0 |
| 30/10:10pm | 8.4 | 7.6 | 8.0 | 97 | 0.2 | S | 2 | 4 | 1 | 2 | 1033.0 | 1024.1 | 0.0 |
| 30/10:00pm | 8.8 | 7.7 | 8.3 | 97 | 0.2 | N | 4 | 4 | 2 | 2 | 1033.0 | 1024.1 | 0.0 |
| 30/09:50pm | 8.8 | 8.1 | 8.4 | 97 | 0.2 | NW | 2 | 4 | 1 | 2 | 1032.9 | 1024.0 | 0.0 |
| 30/09:40pm | 8.9 | 8.2 | 8.5 | 97 | 0.2 | NNW | 2 | 2 | 1 | 1 | 1033.0 | 1024.1 | 0.0 |
| 30/09:30pm | 9.0 | 8.3 | 8.5 | 97 | 0.2 | NW | 2 | 2 | 1 | 1 | 1033.1 | 1024.2 | 0.0 |
| 30/09:20pm | 9.2 | 8.5 | 8.7 | 97 | 0.2 | E | 2 | 4 | 1 | 2 | 1033.1 | 1024.2 | 0.0 |
| 30/09:10pm | 9.2 | 8.9 | 8.7 | 97 | 0.2 | CALM | 0 | 2 | 0 | 1 | 1032.9 | 1024.0 | 0.0 |
| 30/09:00pm | 9.5 | 8.9 | 9.0 | 97 | 0.2 | N | 2 | 4 | 1 | 2 | 1032.7 | 1023.8 | 0.0 |
| 30/08:50pm | 9.7 | 9.2 | 9.2 | 97 | 0.2 | ESE | 2 | 4 | 1 | 2 | 1032.8 | 1023.9 | 0.0 |
| 30/08:40pm | 10.0 | 9.5 | 9.4 | 96 | 0.3 | WNW | 2 | 2 | 1 | 1 | 1032.6 | 1023.7 | 0.0 |
| 30/08:30pm | 10.2 | 10.1 | 9.5 | 95 | 0.4 | CALM | 0 | 2 | 0 | 1 | 1032.5 | 1023.6 | 0.0 |
| 30/08:20pm | 10.4 | 10.0 | 9.8 | 96 | 0.3 | E | 2 | 2 | 1 | 1 | 1032.5 | 1023.6 | 0.0 |
| 30/08:10pm | 10.4 | 10.0 | 9.7 | 95 | 0.4 | S | 2 | 4 | 1 | 2 | 1032.4 | 1023.5 | 0.0 |
| 30/08:00pm | 11.0 | 10.8 | 10.3 | 95 | 0.4 | NNE | 2 | 2 | 1 | 1 | 1032.3 | 1023.4 | 0.0 |
| 30/07:50pm | 10.9 | 10.6 | 10.1 | 95 | 0.4 | W | 2 | 2 | 1 | 1 | 1032.3 | 1023.4 | 0.0 |
| 30/07:40pm | 11.3 | 11.1 | 10.5 | 95 | 0.4 | E | 2 | 4 | 1 | 2 | 1032.3 | 1023.4 | 0.0 |
| 30/07:30pm | 11.6 | 11.8 | 10.6 | 94 | 0.5 | CALM | 0 | 2 | 0 | 1 | 1032.2 | 1023.3 | 0.0 |
| 30/07:20pm | 11.9 | 12.2 | 10.8 | 93 | 0.6 | CALM | 0 | 2 | 0 | 1 | 1032.1 | 1023.2 | 0.0 |
| 30/07:10pm | 12.1 | 12.4 | 10.9 | 92 | 0.6 | CALM | 0 | 2 | 0 | 1 | 1032.1 | 1023.2 | 0.0 |
| 30/07:00pm | 12.7 | 12.8 | 11.4 | 92 | 0.7 | E | 2 | 4 | 1 | 2 | 1032.0 | 1023.1 | 0.0 |
| 30/06:50pm | 12.8 | 12.9 | 11.4 | 91 | 0.7 | WNW | 2 | 2 | 1 | 1 | 1031.8 | 1022.9 | 0.0 |
| 30/06:40pm | 13.1 | 13.2 | 11.5 | 90 | 0.9 | SE | 2 | 2 | 1 | 1 | 1031.8 | 1022.9 | 0.0 |
| 30/06:30pm | 13.3 | 13.1 | 11.7 | 90 | 0.9 | SE | 4 | 4 | 2 | 2 | 1031.7 | 1022.8 | 0.0 |
| 30/06:20pm | 14.1 | 14.3 | 12.0 | 87 | 1.1 | SE | 2 | 2 | 1 | 1 | 1031.3 | 1022.4 | 0.0 |
| 30/06:10pm | 14.3 | 14.2 | 12.1 | 87 | 1.2 | SE | 4 | 4 | 2 | 2 | 1031.3 | 1022.4 | 0.0 |
| 30/06:00pm | 14.7 | 14.7 | 12.3 | 85 | 1.3 | SE | 4 | 4 | 2 | 2 | 1031.1 | 1022.2 | 0.0 |
| 30/05:50pm | 14.9 | 14.9 | 12.4 | 85 | 1.4 | SE | 4 | 7 | 2 | 4 | 1030.9 | 1022.0 | 0.0 |
| 30/05:40pm | 15.3 | 15.3 | 12.5 | 83 | 1.5 | SSE | 4 | 7 | 2 | 4 | 1030.8 | 1021.9 | 0.0 |
| 30/05:30pm | 16.0 | 16.1 | 12.6 | 80 | 1.9 | S | 4 | 6 | 2 | 3 | 1030.6 | 1021.7 | 0.0 |
| 30/05:20pm | 16.4 | 16.5 | 12.6 | 78 | 2.1 | SSE | 4 | 6 | 2 | 3 | 1030.6 | 1021.7 | 0.0 |
| 30/05:10pm | 16.9 | 16.6 | 12.7 | 76 | 2.3 | S | 6 | 9 | 3 | 5 | 1030.5 | 1021.6 | 0.0 |
| 30/05:00pm | 17.4 | 16.5 | 12.7 | 74 | 2.6 | SSE | 9 | 15 | 5 | 8 | 1030.3 | 1021.4 | 0.0 |
| 30/04:50pm | 18.1 | 17.6 | 12.6 | 70 | 3.1 | S | 7 | 13 | 4 | 7 | 1030.1 | 1021.2 | 0.0 |
| 30/04:40pm | 18.7 | 18.0 | 12.1 | 65 | 3.7 | S | 7 | 15 | 4 | 8 | 1029.8 | 1020.9 | 0.0 |
| 30/04:30pm | 20.0 | 19.2 | 11.8 | 59 | 4.6 | SE | 7 | 15 | 4 | 8 | 1029.6 | 1020.7 | 0.0 |
| 30/04:20pm | 21.0 | 20.2 | 11.1 | 53 | 5.5 | SSE | 6 | 13 | 3 | 7 | 1029.3 | 1020.4 | 0.0 |
| 30/04:10pm | 21.5 | 20.7 | 11.2 | 52 | 5.7 | SSE | 6 | 13 | 3 | 7 | 1028.9 | 1020.1 | 0.0 |
| 30/04:00pm | 21.7 | 21.2 | 12.1 | 54 | 5.4 | SE | 6 | 11 | 3 | 6 | 1028.7 | 1019.9 | 0.0 |
| 30/03:50pm | 22.0 | 21.5 | 12.1 | 53 | 5.6 | ESE | 6 | 11 | 3 | 6 | 1028.7 | 1019.9 | 0.0 |
| 30/03:40pm | 22.5 | 22.2 | 11.5 | 49 | 6.2 | SE | 4 | 9 | 2 | 5 | 1028.5 | 1019.7 | 0.0 |
| 30/03:30pm | 23.0 | 22.4 | 11.7 | 49 | 6.4 | ESE | 6 | 11 | 3 | 6 | 1028.5 | 1019.7 | 0.0 |
| 30/03:20pm | 22.8 | 22.2 | 11.6 | 49 | 6.3 | SSE | 6 | 7 | 3 | 4 | 1028.5 | 1019.7 | 0.0 |
| 30/03:10pm | 23.2 | 22.6 | 11.8 | 48 | 6.4 | ESE | 6 | 6 | 3 | 3 | 1028.5 | 1019.7 | 0.0 |
| 30/03:00pm | 23.4 | 23.3 | 12.0 | 48 | 6.5 | SE | 4 | 11 | 2 | 6 | 1028.4 | 1019.6 | 0.0 |
| 30/02:50pm | 23.3 | 23.0 | 11.4 | 47 | 6.7 | SE | 4 | 7 | 2 | 4 | 1028.4 | 1019.6 | 0.0 |
| 30/02:40pm | 23.7 | 23.4 | 11.6 | 46 | 6.8 | ESE | 4 | 7 | 2 | 4 | 1028.4 | 1019.6 | 0.0 |
| 30/02:30pm | 23.4 | 22.4 | 10.2 | 43 | 7.3 | SE | 6 | 7 | 3 | 4 | 1028.5 | 1019.7 | 0.0 |
| 30/02:20pm | 23.4 | 22.6 | 9.6 | 41 | 7.5 | SSE | 4 | 7 | 2 | 4 | 1028.5 | 1019.7 | 0.0 |
| 30/02:10pm | 23.0 | 22.1 | 9.3 | 41 | 7.4 | SE | 4 | 6 | 2 | 3 | 1028.7 | 1019.9 | 0.0 |
| 30/02:00pm | 23.0 | 21.8 | 9.6 | 42 | 7.3 | SE | 6 | 7 | 3 | 4 | 1028.8 | 1020.0 | 0.0 |
| 30/01:50pm | 22.6 | 21.7 | 9.1 | 42 | 7.3 | ESE | 4 | 7 | 2 | 4 | 1028.9 | 1020.1 | 0.0 |
| 30/01:40pm | 22.7 | 22.0 | 10.1 | 44 | 6.9 | SSE | 4 | 6 | 2 | 3 | 1029.1 | 1020.3 | 0.0 |
| 30/01:30pm | 22.2 | 21.4 | 9.5 | 44 | 6.9 | E | 4 | 7 | 2 | 4 | 1029.1 | 1020.3 | 0.0 |
| 30/01:20pm | 21.9 | 21.0 | 10.5 | 48 | 6.3 | ESE | 6 | 7 | 3 | 4 | 1029.4 | 1020.5 | 0.0 |
| 30/01:10pm | 21.8 | 21.1 | 9.9 | 46 | 6.5 | ESE | 4 | 6 | 2 | 3 | 1029.6 | 1020.7 | 0.0 |
| 30/01:00pm | 21.5 | 20.8 | 9.9 | 47 | 6.3 | ESE | 4 | 6 | 2 | 3 | 1029.8 | 1020.9 | 0.0 |
| 30/12:50pm | 21.3 | 20.1 | 9.6 | 47 | 6.3 | SE | 6 | 9 | 3 | 5 | 1030.0 | 1021.1 | 0.0 |
| 30/12:40pm | 21.6 | 20.9 | 10.0 | 47 | 6.3 | SSW | 4 | 6 | 2 | 3 | 1030.2 | 1021.3 | 0.0 |
| 30/12:30pm | 20.8 | 20.0 | 9.5 | 48 | 6.1 | E | 4 | 7 | 2 | 4 | 1030.4 | 1021.5 | 0.0 |
| 30/12:20pm | 21.1 | 20.4 | 10.0 | 49 | 6.0 | NW | 4 | 7 | 2 | 4 | 1030.5 | 1021.6 | 0.0 |
| 30/12:10pm | 20.5 | 19.7 | 11.2 | 55 | 5.1 | W | 6 | 9 | 3 | 5 | 1030.8 | 1021.9 | 0.0 |
| 30/12:00pm | 20.3 | 19.8 | 10.7 | 54 | 5.2 | E | 4 | 6 | 2 | 3 | 1031.0 | 1022.1 | 0.0 |
| 30/11:50am | 20.0 | 19.6 | 11.1 | 56 | 4.9 | SSW | 4 | 7 | 2 | 4 | 1031.1 | 1022.2 | 0.0 |
| 30/11:40am | 19.7 | 19.4 | 11.4 | 58 | 4.6 | W | 4 | 7 | 2 | 4 | 1031.3 | 1022.4 | 0.0 |
| 30/11:30am | 19.4 | 18.8 | 10.5 | 56 | 4.8 | S | 4 | 6 | 2 | 3 | 1031.4 | 1022.5 | 0.0 |
| 30/11:20am | 19.3 | 18.8 | 10.8 | 58 | 4.6 | SSW | 4 | 7 | 2 | 4 | 1031.6 | 1022.7 | 0.0 |
| 30/11:10am | 18.5 | 18.1 | 11.0 | 61 | 4.1 | SSW | 4 | 9 | 2 | 5 | 1031.7 | 1022.8 | 0.0 |
| 30/11:00am | 18.0 | 17.0 | 10.3 | 60 | 4.1 | SW | 6 | 9 | 3 | 5 | 1031.8 | 1022.9 | 0.0 |
| 30/10:50am | 17.6 | 16.9 | 9.9 | 60 | 4.1 | S | 4 | 7 | 2 | 4 | 1032.1 | 1023.2 | 0.0 |
| 30/10:40am | 16.9 | 16.3 | 8.8 | 59 | 4.2 | E | 2 | 6 | 1 | 3 | 1032.2 | 1023.3 | 0.0 |
| 30/10:30am | 16.0 | 15.2 | 8.1 | 59 | 4.0 | ENE | 2 | 4 | 1 | 2 | 1032.3 | 1023.4 | 0.0 |
| 30/10:20am | 15.2 | 14.2 | 7.4 | 59 | 3.9 | SSE | 2 | 4 | 1 | 2 | 1032.3 | 1023.4 | 0.0 |
| 30/10:10am | 14.8 | 14.0 | 8.0 | 64 | 3.4 | W | 2 | 4 | 1 | 2 | 1032.3 | 1023.4 | 0.0 |
| 30/10:00am | 14.2 | 13.4 | 8.1 | 66 | 3.1 | W | 2 | 4 | 1 | 2 | 1032.3 | 1023.4 | 0.0 |
| 30/09:50am | 13.3 | 12.5 | 8.1 | 71 | 2.6 | NW | 2 | 4 | 1 | 2 | 1032.4 | 1023.5 | 0.0 |
| 30/09:40am | 12.4 | 11.2 | 7.9 | 74 | 2.2 | NNW | 4 | 4 | 2 | 2 | 1032.5 | 1023.6 | 0.0 |
| 30/09:30am | 11.1 | 10.4 | 8.6 | 84 | 1.2 | N | 2 | 4 | 1 | 2 | 1032.5 | 1023.6 | 0.0 |
| 30/09:20am | 9.7 | 9.1 | 9.0 | 95 | 0.3 | N | 2 | 2 | 1 | 1 | 1032.6 | 1023.7 | 0.0 |
| 30/09:10am | 9.1 | 8.5 | 8.9 | 99 | 0.1 | SSE | 2 | 4 | 1 | 2 | 1032.6 | 1023.7 | 0.0 |
| 30/09:00am | 8.5 | 7.8 | 8.5 | 100 | 0.0 | SSE | 2 | 4 | 1 | 2 | 1032.6 | 1023.7 | 0.0 |
| 30/08:50am | 7.9 | 7.0 | 7.9 | 100 | 0.0 | SE | 2 | 2 | 1 | 1 | 1032.6 | 1023.7 | 0.0 |
| 30/08:40am | 7.4 | 6.4 | 7.4 | 100 | 0.0 | SE | 2 | 2 | 1 | 1 | 1032.6 | 1023.7 | 0.0 |
| 30/08:30am | 7.0 | 5.9 | 7.0 | 100 | 0.0 | ENE | 2 | 2 | 1 | 1 | 1032.6 | 1023.7 | 0.0 |
| 30/08:20am | 6.2 | 4.9 | 6.2 | 100 | 0.0 | SSE | 2 | 2 | 1 | 1 | 1032.6 | 1023.7 | 0.0 |
| 30/08:10am | 6.0 | 4.7 | 6.0 | 100 | 0.0 | E | 2 | 2 | 1 | 1 | 1032.6 | 1023.7 | 0.0 |
| 30/08:00am | 5.8 | 4.5 | 5.8 | 100 | 0.0 | NE | 2 | 4 | 1 | 2 | 1032.5 | 1023.6 | 0.0 |
| 30/07:50am | 5.3 | 3.9 | 5.3 | 100 | 0.0 | ENE | 2 | 4 | 1 | 2 | 1032.4 | 1023.5 | 0.0 |
| 30/07:40am | 4.4 | 2.8 | 4.4 | 100 | 0.0 | ENE | 2 | 4 | 1 | 2 | 1032.4 | 1023.5 | 0.0 |
| 30/07:30am | 4.2 | 2.5 | 4.2 | 100 | 0.0 | ENE | 2 | 4 | 1 | 2 | 1032.3 | 1023.4 | 0.0 |
| 30/07:20am | 3.7 | 1.6 | 3.7 | 100 | 0.0 | ESE | 4 | 4 | 2 | 2 | 1032.3 | 1023.4 | 0.0 |
| 30/07:10am | 3.6 | 1.8 | 3.6 | 100 | 0.0 | ESE | 2 | 4 | 1 | 2 | 1032.2 | 1023.3 | 0.0 |
| 30/07:00am | 3.7 | 1.9 | 3.7 | 100 | 0.0 | ESE | 2 | 4 | 1 | 2 | 1032.1 | 1023.2 | 0.0 |
| 30/06:50am | 3.4 | 1.6 | 3.4 | 100 | 0.0 | NE | 2 | 4 | 1 | 2 | 1032.1 | 1023.2 | 0.0 |
| 30/06:40am | 2.9 | 1.0 | 2.9 | 100 | 0.0 | NNW | 2 | 2 | 1 | 1 | 1032.0 | 1023.1 | 0.0 |
| 30/06:30am | 3.1 | 1.2 | 3.1 | 100 | 0.0 | E | 2 | 4 | 1 | 2 | 1032.0 | 1023.1 | 0.0 |
| 30/06:20am | 2.8 | 0.9 | 2.8 | 100 | 0.0 | ENE | 2 | 4 | 1 | 2 | 1031.9 | 1023.0 | 0.0 |
| 30/06:10am | 2.4 | 0.8 | 2.3 | 99 | 0.0 | CALM | 0 | 2 | 0 | 1 | 1031.9 | 1023.0 | 0.0 |
| 30/06:00am | 2.7 | 0.8 | 2.6 | 99 | 0.0 | NNE | 2 | 2 | 1 | 1 | 1031.8 | 1022.9 | 0.0 |
Other formats
Comma delimited format used in spreadsheet applications
http://www.bom.gov.au/fwo/IDN60801/IDN60801.99394.axf
JavaScript Object Notation format (JSON) in row-major order
http://www.bom.gov.au/fwo/IDN60801/IDN60801.99394.json
Data quality
Most of these data are generated automatically and are frequently updated. Quality checks on data are not normally performed. It is possible for incorrect values to appear. Refer to information at About Latest Weather Observations and please check the disclaimer before using these data.
